Time;durP1;ratioP1;P1;durP2;ratioP2;P2;SDS_P1;SDS_P2;PMS_P1;PMS_P2;Temp;Humidity;BMP_temperature;BMP_pressure;BME280_temperature;BME280_humidity;BME280_pressure;Samples;Min_cycle;Max_cycle;Signal;HPM_P1;HPM_P2
2021/05/16 00:00:27;;;;;;;2.60;2.40;;;12.80;92.00;;;;;;5014344;28;20390;-58
2021/05/16 00:02:55;;;;;;;2.55;2.35;;;12.90;92.20;;;;;;5014027;28;20025;-56
2021/05/16 00:05:25;;;;;;;2.92;2.40;;;12.90;91.90;;;;;;4996402;28;20022;-59
2021/05/16 00:07:53;;;;;;;2.63;2.42;;;12.90;91.80;;;;;;5014000;28;20026;-60
2021/05/16 00:10:24;;;;;;;3.67;2.40;;;13.00;92.40;;;;;;5014165;28;20490;-59
2021/05/16 00:12:52;;;;;;;3.35;2.55;;;13.10;92.20;;;;;;5013887;28;20022;-60
2021/05/16 00:15:21;;;;;;;3.85;2.90;;;13.40;92.00;;;;;;5013782;28;20485;-60
2021/05/16 00:17:49;;;;;;;4.88;2.80;;;13.50;91.80;;;;;;5013546;28;20407;-58
2021/05/16 00:20:20;;;;;;;3.42;3.13;;;13.50;91.70;;;;;;5013696;28;20479;-60
2021/05/16 00:22:47;;;;;;;4.45;2.90;;;13.40;91.70;;;;;;4995968;28;20104;-60
2021/05/16 00:25:16;;;;;;;3.67;2.95;;;13.40;91.40;;;;;;5013515;28;20084;-58
2021/05/16 00:27:45;;;;;;;4.75;2.88;;;13.30;91.50;;;;;;5013504;28;20018;-59
2021/05/16 00:30:15;;;;;;;4.47;2.80;;;13.50;91.80;;;;;;4995662;28;20161;-57
2021/05/16 00:32:43;;;;;;;5.63;3.20;;;13.60;91.10;;;;;;5013541;28;20474;-58
2021/05/16 00:35:13;;;;;;;2.85;2.65;;;13.70;91.30;;;;;;5013612;28;20026;-58
2021/05/16 00:37:41;;;;;;;2.78;2.53;;;13.90;91.70;;;;;;5013683;28;20017;-59
2021/05/16 00:40:09;;;;;;;2.75;2.53;;;14.10;91.50;;;;;;5013540;28;20056;-59
2021/05/16 00:42:37;;;;;;;2.55;2.35;;;14.10;91.10;;;;;;5013408;28;20387;-62
2021/05/16 00:45:13;;;;;;;4.05;2.55;;;14.10;91.00;;;;;;5013689;28;20025;-59
2021/05/16 00:47:46;;;;;;;2.92;2.70;;;14.30;91.30;;;;;;5013403;28;20049;-60
2021/05/16 00:50:14;;;;;;;3.20;2.85;;;14.20;91.00;;;;;;4980411;28;20041;-61
2021/05/16 00:52:43;;;;;;;2.80;2.60;;;14.00;91.00;;;;;;5013433;28;20049;-57
2021/05/16 00:55:12;;;;;;;3.25;2.80;;;14.00;91.20;;;;;;5013214;28;20141;-61
2021/05/16 00:57:40;;;;;;;2.67;2.50;;;14.10;91.10;;;;;;5013160;28;20033;-61
2021/05/16 01:00:11;;;;;;;2.58;2.47;;;14.10;91.00;;;;;;5013444;28;20068;-59
2021/05/16 01:02:39;;;;;;;2.88;2.67;;;14.20;90.90;;;;;;5013163;28;20553;-60
2021/05/16 01:05:10;;;;;;;3.08;2.75;;;14.30;90.70;;;;;;5013096;28;20026;-60
2021/05/16 01:07:37;;;;;;;;;;;14.20;90.30;;;;;;5013622;28;20100;-58
2021/05/16 01:10:08;;;;;;;3.13;2.85;;;14.40;91.00;;;;;;5013109;28;19914;-60
2021/05/16 01:12:44;;;;;;;3.65;2.95;;;14.90;90.40;;;;;;5012961;28;20025;-58
2021/05/16 01:15:16;;;;;;;3.05;2.83;;;15.10;90.40;;;;;;5012335;28;20030;-58
2021/05/16 01:17:43;;;;;;;4.63;3.13;;;15.20;90.50;;;;;;4995292;28;20080;-57
2021/05/16 01:20:16;;;;;;;4.95;2.42;;;15.20;90.20;;;;;;5012857;28;20030;-57
2021/05/16 01:22:50;;;;;;;3.33;2.83;;;15.20;89.80;;;;;;5012934;28;20037;-55
2021/05/16 01:25:18;;;;;;;3.03;2.63;;;15.30;90.30;;;;;;5012853;28;20046;-55
2021/05/16 01:27:46;;;;;;;3.70;3.17;;;15.50;90.20;;;;;;5012817;28;20463;-57
2021/05/16 01:30:15;;;;;;;3.15;2.95;;;15.50;90.50;;;;;;5012673;28;20410;-58
2021/05/16 01:32:43;;;;;;;3.28;2.60;;;15.40;90.00;;;;;;5012952;28;20105;-57
2021/05/16 01:35:10;;;;;;;3.53;2.70;;;15.30;90.10;;;;;;5012882;28;20034;-55
2021/05/16 01:37:38;;;;;;;2.80;2.60;;;15.40;89.80;;;;;;5012948;28;20026;-58
2021/05/16 01:40:07;;;;;;;2.30;2.20;;;15.70;90.20;;;;;;5012893;28;20470;-58
2021/05/16 01:42:35;;;;;;;4.13;2.47;;;15.60;89.10;;;;;;5012841;28;20360;-59
2021/05/16 01:45:04;;;;;;;3.55;2.47;;;15.60;90.20;;;;;;5012745;28;20089;-57
2021/05/16 01:47:32;;;;;;;2.30;2.10;;;15.60;89.40;;;;;;5012706;28;20441;-59
2021/05/16 01:50:14;;;;;;;2.83;2.50;;;15.30;89.60;;;;;;5012609;28;20426;-56
2021/05/16 01:52:44;;;;;;;2.28;2.13;;;15.60;90.00;;;;;;5012444;28;20018;-54
2021/05/16 01:55:12;;;;;;;4.22;2.40;;;15.70;89.10;;;;;;5012698;28;20545;-53
2021/05/16 01:57:40;;;;;;;3.10;2.33;;;15.70;89.10;;;;;;5012678;28;20501;-56
2021/05/16 02:00:11;;;;;;;2.58;2.38;;;15.90;88.70;;;;;;5012779;28;20021;-54
2021/05/16 02:02:38;;;;;;;;;;;16.10;88.70;;;;;;5013139;28;20049;-56
2021/05/16 02:05:08;;;;;;;5.05;2.45;;;15.90;89.30;;;;;;5012692;28;19905;-56
2021/05/16 02:07:36;;;;;;;2.72;2.40;;;15.70;88.20;;;;;;5012652;28;20105;-57
2021/05/16 02:10:07;;;;;;;4.20;2.30;;;15.90;89.10;;;;;;5012393;28;20030;-57
2021/05/16 02:12:35;;;;;;;5.70;2.40;;;16.00;89.80;;;;;;5012609;28;20033;-57
2021/05/16 02:15:03;;;;;;;2.90;2.22;;;16.10;87.70;;;;;;5012347;28;20021;-57
2021/05/16 02:17:30;;;;;;;3.13;2.13;;;16.40;89.40;;;;;;5012529;28;20018;-56
2021/05/16 02:19:58;;;;;;;2.90;1.98;;;16.50;87.30;;;;;;5012357;28;20096;-52
2021/05/16 02:22:25;;;;;;;1.52;1.45;;;16.50;87.70;;;;;;5012498;28;20018;-54
2021/05/16 02:24:52;;;;;;;2.95;1.77;;;16.30;86.80;;;;;;5013266;28;20049;-56
2021/05/16 02:27:20;;;;;;;2.05;1.88;;;16.50;88.60;;;;;;5016050;28;20386;-57
2021/05/16 02:29:47;;;;;;;3.78;2.00;;;16.60;87.50;;;;;;5015733;28;20042;-55
2021/05/16 02:32:14;;;;;;;2.75;2.30;;;16.80;88.70;;;;;;5015983;28;20021;-56
2021/05/16 02:34:42;;;;;;;2.50;2.30;;;16.60;87.50;;;;;;4998279;28;20109;-58
2021/05/16 02:37:09;;;;;;;3.47;2.85;;;16.60;86.80;;;;;;5015740;28;20041;-55
2021/05/16 02:39:36;;;;;;;3.20;2.65;;;16.40;86.00;;;;;;5015813;28;20029;-56
2021/05/16 02:42:04;;;;;;;2.70;2.50;;;16.50;87.50;;;;;;4998179;28;20113;-54
2021/05/16 02:44:31;;;;;;;2.83;2.30;;;16.60;85.70;;;;;;4998036;28;20034;-59
2021/05/16 02:46:59;;;;;;;2.65;2.45;;;16.60;85.00;;;;;;5015633;28;20080;-57
2021/05/16 02:49:27;;;;;;;3.97;2.28;;;16.50;85.90;;;;;;5015486;28;20025;-58
2021/05/16 02:51:54;;;;;;;2.47;2.28;;;16.70;87.70;;;;;;5015528;28;20022;-55
2021/05/16 02:54:21;;;;;;;2.97;2.78;;;16.90;86.50;;;;;;5015636;28;20018;-52
2021/05/16 02:56:49;;;;;;;3.03;2.60;;;16.80;86.00;;;;;;5015500;28;20022;-55
2021/05/16 02:59:16;;;;;;;2.90;2.70;;;16.80;85.70;;;;;;5015199;28;20088;-54
2021/05/16 03:01:44;;;;;;;2.65;2.50;;;16.90;86.10;;;;;;5015307;28;20477;-51
2021/05/16 03:04:11;;;;;;;4.13;2.50;;;17.00;85.80;;;;;;5015253;28;20433;-55
2021/05/16 03:06:39;;;;;;;3.35;2.50;;;17.20;85.10;;;;;;5015224;28;20087;-52
2021/05/16 03:09:07;;;;;;;3.17;2.25;;;17.30;84.50;;;;;;5015060;28;20030;-50
2021/05/16 03:11:34;;;;;;;2.58;2.17;;;17.20;84.30;;;;;;5015298;28;20021;-52
2021/05/16 03:14:02;;;;;;;2.78;2.58;;;17.20;85.40;;;;;;5014956;28;20025;-51
2021/05/16 03:16:29;;;;;;;3.00;2.75;;;17.40;83.90;;;;;;5015113;28;20097;-54
2021/05/16 03:18:56;;;;;;;4.63;2.90;;;17.50;82.50;;;;;;5014988;28;20069;-54
2021/05/16 03:21:24;;;;;;;5.03;3.15;;;17.40;81.50;;;;;;5014924;28;20061;-52
2021/05/16 03:23:51;;;;;;;3.67;3.38;;;17.40;81.00;;;;;;5014922;28;20109;-51
2021/05/16 03:26:18;;;;;;;2.70;2.50;;;17.50;82.60;;;;;;5014796;28;20030;-55
2021/05/16 03:28:46;;;;;;;6.13;2.80;;;17.20;81.80;;;;;;4996927;28;20480;-53
2021/05/16 03:31:13;;;;;;;2.60;2.40;;;17.00;81.80;;;;;;5014894;28;20026;-51
2021/05/16 03:33:40;;;;;;;2.90;2.60;;;17.10;83.40;;;;;;4997072;28;20096;-57
2021/05/16 03:36:08;;;;;;;2.72;2.53;;;17.40;84.10;;;;;;5014289;28;20022;-57
2021/05/16 03:38:35;;;;;;;4.32;2.50;;;17.40;81.60;;;;;;5014445;28;20490;-53
2021/05/16 03:41:03;;;;;;;3.20;2.78;;;17.40;85.00;;;;;;5014665;28;20033;-55
2021/05/16 03:43:31;;;;;;;4.25;3.00;;;17.70;84.50;;;;;;5014678;28;20036;-56
2021/05/16 03:45:58;;;;;;;2.42;2.20;;;17.80;82.50;;;;;;5014389;28;20030;-56
2021/05/16 03:48:26;;;;;;;2.15;1.95;;;17.60;81.00;;;;;;5014476;28;20029;-54
2021/05/16 03:50:53;;;;;;;3.08;2.20;;;17.50;80.40;;;;;;5014558;28;20026;-54
2021/05/16 03:53:23;;;;;;;2.55;2.15;;;17.70;82.90;;;;;;5014125;28;20081;-52
2021/05/16 03:55:50;;;;;;;2.28;2.17;;;17.70;81.70;;;;;;5014344;28;20026;-57
2021/05/16 03:58:17;;;;;;;2.40;2.17;;;17.70;78.70;;;;;;5014413;28;20021;-51
2021/05/16 04:00:45;;;;;;;3.22;2.53;;;17.40;80.30;;;;;;4998074;28;20045;-55
2021/05/16 04:03:12;;;;;;;2.60;2.33;;;17.30;82.20;;;;;;4996939;28;20018;-50
2021/05/16 04:05:40;;;;;;;2.38;2.00;;;17.40;82.20;;;;;;5014173;28;20026;-53
2021/05/16 04:08:07;;;;;;;2.88;2.20;;;17.40;78.30;;;;;;5014143;28;20482;-53
2021/05/16 04:10:34;;;;;;;2.55;2.13;;;17.30;78.80;;;;;;5014082;28;20026;-52
2021/05/16 04:13:02;;;;;;;2.22;2.03;;;17.40;78.40;;;;;;5014048;28;20026;-50
2021/05/16 04:15:29;;;;;;;2.60;2.30;;;17.40;77.10;;;;;;5013954;28;20018;-53
2021/05/16 04:17:57;;;;;;;2.25;2.15;;;17.50;77.70;;;;;;5014007;28;20433;-55
2021/05/16 04:20:24;;;;;;;2.90;2.13;;;17.40;77.40;;;;;;5013787;28;20051;-56
2021/05/16 04:22:51;;;;;;;2.22;2.03;;;17.40;75.90;;;;;;5013839;28;20045;-56
2021/05/16 04:25:19;;;;;;;1.92;1.83;;;17.40;76.00;;;;;;4996514;28;20029;-52
2021/05/16 04:27:46;;;;;;;2.17;2.00;;;17.20;74.90;;;;;;5013623;28;20018;-56
2021/05/16 04:30:14;;;;;;;2.40;2.30;;;17.20;76.10;;;;;;5013561;28;20042;-57
2021/05/16 04:32:41;;;;;;;2.17;2.08;;;17.20;76.30;;;;;;5013703;28;20461;-53
2021/05/16 04:35:09;;;;;;;2.42;2.05;;;17.30;77.40;;;;;;5013667;28;20041;-54
2021/05/16 04:37:36;;;;;;;2.85;2.55;;;17.30;74.00;;;;;;5013677;28;20045;-53
2021/05/16 04:40:05;;;;;;;3.00;2.70;;;17.10;76.40;;;;;;5013667;28;20021;-51
2021/05/16 04:42:33;;;;;;;2.50;2.20;;;17.30;78.40;;;;;;5012835;28;20103;-55
2021/05/16 04:45:00;;;;;;;3.00;2.80;;;17.20;77.60;;;;;;5013544;28;20097;-54
2021/05/16 04:47:28;;;;;;;2.70;2.50;;;17.40;76.30;;;;;;5013411;28;20053;-53
2021/05/16 04:49:55;;;;;;;3.17;2.15;;;17.20;76.90;;;;;;5012521;28;20372;-51
2021/05/16 04:52:22;;;;;;;2.50;2.30;;;17.30;76.40;;;;;;5013326;28;20072;-54
2021/05/16 04:54:50;;;;;;;2.47;2.20;;;17.30;78.30;;;;;;5013155;28;20018;-54
2021/05/16 04:57:17;;;;;;;3.17;2.70;;;17.20;72.30;;;;;;5013309;28;20026;-53
2021/05/16 04:59:48;;;;;;;2.70;2.45;;;17.10;75.00;;;;;;5013309;28;20026;-49
2021/05/16 05:02:17;;;;;;;2.75;2.55;;;17.10;75.20;;;;;;5013279;28;20088;-53
2021/05/16 05:04:45;;;;;;;3.45;2.90;;;17.10;75.00;;;;;;5013259;28;20364;-50
2021/05/16 05:07:15;;;;;;;2.75;2.55;;;17.20;75.70;;;;;;5013152;28;20493;-51
2021/05/16 05:09:42;;;;;;;3.05;2.85;;;17.20;78.00;;;;;;5012997;28;20537;-54
2021/05/16 05:12:09;;;;;;;2.47;2.30;;;17.10;77.20;;;;;;4995460;28;20021;-50
2021/05/16 05:14:37;;;;;;;2.80;2.60;;;17.10;75.20;;;;;;5013273;28;20018;-54
2021/05/16 05:17:04;;;;;;;2.38;2.17;;;17.00;74.80;;;;;;5013253;28;20022;-54
2021/05/16 05:19:31;;;;;;;2.20;2.10;;;17.10;72.10;;;;;;5013184;28;20030;-51
2021/05/16 05:21:59;;;;;;;2.47;2.38;;;17.10;72.90;;;;;;5012689;28;20427;-48
2021/05/16 05:24:26;;;;;;;3.00;2.45;;;17.00;72.40;;;;;;5012863;28;20076;-50
2021/05/16 05:26:54;;;;;;;2.47;2.30;;;17.00;70.90;;;;;;5012825;28;20030;-48
2021/05/16 05:29:21;;;;;;;2.60;2.50;;;16.90;73.70;;;;;;5012616;28;20546;-50
2021/05/16 05:31:48;;;;;;;2.72;2.58;;;16.90;71.80;;;;;;5012879;28;20478;-53
2021/05/16 05:34:16;;;;;;;2.35;2.20;;;16.80;72.10;;;;;;5012852;28;20026;-54
2021/05/16 05:36:43;;;;;;;2.30;2.20;;;16.90;72.30;;;;;;5012619;28;20018;-52
2021/05/16 05:39:11;;;;;;;2.17;2.05;;;16.90;72.40;;;;;;5012626;28;20026;-54
2021/05/16 05:41:38;;;;;;;2.30;2.20;;;16.90;73.30;;;;;;5012847;28;20057;-53
2021/05/16 05:44:06;;;;;;;2.53;2.42;;;16.80;73.70;;;;;;5012612;28;20518;-50
2021/05/16 05:46:33;;;;;;;3.05;2.85;;;16.80;74.50;;;;;;5012733;28;20018;-49
2021/05/16 05:49:00;;;;;;;2.80;2.50;;;16.70;76.00;;;;;;5012604;28;20022;-54
2021/05/16 05:51:28;;;;;;;3.00;2.80;;;16.60;76.70;;;;;;5012648;28;20026;-52
2021/05/16 05:53:55;;;;;;;3.35;2.80;;;16.50;77.30;;;;;;5012542;28;20022;-53
2021/05/16 05:56:23;;;;;;;3.00;2.80;;;16.40;77.70;;;;;;5012587;28;20441;-49
2021/05/16 05:58:50;;;;;;;2.70;2.60;;;16.40;79.30;;;;;;5012621;28;20060;-54
2021/05/16 06:01:18;;;;;;;2.70;2.60;;;16.30;77.90;;;;;;4998251;28;20033;-54
2021/05/16 06:03:47;;;;;;;2.75;2.58;;;16.20;78.50;;;;;;5016338;28;20026;-51
2021/05/16 06:06:15;;;;;;;2.70;2.60;;;16.10;80.00;;;;;;5016107;28;20498;-51
2021/05/16 06:08:42;;;;;;;3.13;2.58;;;16.00;83.20;;;;;;5015987;28;20038;-53
2021/05/16 06:11:10;;;;;;;2.90;2.70;;;15.90;80.60;;;;;;5016052;28;20096;-49
2021/05/16 06:13:37;;;;;;;2.60;2.50;;;15.80;82.20;;;;;;5016103;28;20491;-53
2021/05/16 06:16:05;;;;;;;2.80;2.60;;;15.70;82.40;;;;;;5016086;28;20026;-53
2021/05/16 06:18:32;;;;;;;3.05;2.85;;;15.60;82.10;;;;;;5016235;28;20366;-54
2021/05/16 06:21:00;;;;;;;4.90;4.60;;;15.50;82.30;;;;;;5015940;28;20483;-53
2021/05/16 06:23:34;;;;;;;3.85;3.55;;;15.40;82.60;;;;;;5015770;28;20072;-54
2021/05/16 06:26:01;;;;;;;3.97;3.58;;;15.40;81.70;;;;;;5015849;28;20041;-55
2021/05/16 06:28:28;;;;;;;3.60;3.30;;;15.40;81.70;;;;;;5015570;28;20044;-51
2021/05/16 06:30:56;;;;;;;5.53;5.03;;;15.40;80.90;;;;;;5015566;28;20077;-51
2021/05/16 06:33:23;;;;;;;5.78;4.93;;;15.30;84.00;;;;;;5015720;28;20073;-53
2021/05/16 06:35:53;;;;;;;6.72;5.55;;;15.10;83.70;;;;;;5015618;28;20022;-51
2021/05/16 06:38:21;;;;;;;6.65;6.05;;;14.90;84.40;;;;;;5015650;28;20028;-52
2021/05/16 06:40:48;;;;;;;11.77;10.85;;;14.90;86.40;;;;;;5015720;28;20073;-51
2021/05/16 06:43:18;;;;;;;8.77;6.05;;;14.80;85.90;;;;;;5015579;28;20335;-53
2021/05/16 06:45:45;;;;;;;7.40;6.80;;;14.70;87.60;;;;;;4998503;28;20028;-52
2021/05/16 06:48:12;;;;;;;15.43;14.02;;;14.70;89.90;;;;;;5015533;28;20426;-52
2021/05/16 06:50:40;;;;;;;11.70;10.50;;;14.50;86.20;;;;;;5015528;28;20014;-50
2021/05/16 06:53:07;;;;;;;6.15;5.65;;;14.40;86.70;;;;;;5015481;28;20022;-50
2021/05/16 06:55:34;;;;;;;8.93;8.02;;;14.30;88.50;;;;;;5015391;28;20391;-55
2021/05/16 06:58:02;;;;;;;11.52;10.52;;;14.10;88.40;;;;;;5015409;28;20126;-53
2021/05/16 07:00:30;;;;;;;6.40;5.20;;;14.00;88.50;;;;;;5015252;28;20046;-48
2021/05/16 07:02:58;;;;;;;5.72;5.25;;;13.80;90.80;;;;;;5015219;28;20064;-51
2021/05/16 07:05:25;;;;;;;6.47;5.85;;;13.70;90.60;;;;;;5015302;28;20428;-51
2021/05/16 07:07:52;;;;;;;5.38;4.93;;;13.50;90.00;;;;;;5014853;28;20025;-52
2021/05/16 07:10:20;;;;;;;4.57;4.20;;;13.40;90.20;;;;;;5015161;28;20026;-52
2021/05/16 07:12:47;;;;;;;5.05;4.28;;;13.30;90.30;;;;;;4996556;28;20029;-52
2021/05/16 07:15:15;;;;;;;7.43;5.25;;;13.40;92.00;;;;;;5014915;28;20053;-50
2021/05/16 07:17:43;;;;;;;7.95;7.15;;;13.40;93.20;;;;;;5014853;28;20026;-50
2021/05/16 07:20:12;;;;;;;7.13;4.65;;;13.10;92.30;;;;;;5015171;28;20394;-50
2021/05/16 07:22:40;;;;;;;5.47;4.97;;;13.00;93.40;;;;;;5014930;28;20394;-52
2021/05/16 07:25:07;;;;;;;7.78;5.07;;;12.90;93.00;;;;;;5014764;28;20025;-52
2021/05/16 07:27:35;;;;;;;7.10;6.50;;;12.70;93.00;;;;;;5014881;28;20393;-47
2021/05/16 07:30:06;;;;;;;7.65;6.93;;;12.60;92.90;;;;;;5014551;28;20103;-48
2021/05/16 07:32:34;;;;;;;7.47;6.30;;;12.60;92.90;;;;;;5014902;28;20022;-48
2021/05/16 07:35:02;;;;;;;6.32;5.72;;;12.40;93.10;;;;;;5014539;28;20041;-52
2021/05/16 07:37:29;;;;;;;6.57;5.30;;;12.30;93.20;;;;;;5014589;28;20101;-47
2021/05/16 07:39:58;;;;;;;6.10;5.60;;;12.20;93.60;;;;;;4997100;28;20113;-49
2021/05/16 07:42:26;;;;;;;6.00;5.22;;;12.20;94.10;;;;;;5014514;28;20060;-51
2021/05/16 07:44:53;;;;;;;5.65;5.20;;;12.10;94.60;;;;;;5014691;28;20431;-51
2021/05/16 07:47:20;;;;;;;7.88;5.72;;;12.00;94.80;;;;;;5014665;28;20048;-52
2021/05/16 07:49:48;;;;;;;5.55;5.05;;;12.00;95.00;;;;;;5014175;28;20026;-51
2021/05/16 07:52:15;;;;;;;6.72;5.28;;;12.00;94.80;;;;;;5014373;28;20018;-47
2021/05/16 07:54:42;;;;;;;6.03;5.53;;;11.90;94.80;;;;;;5014434;28;20045;-47
2021/05/16 07:57:09;;;;;;;5.85;5.25;;;11.90;95.30;;;;;;5014440;28;20100;-48
2021/05/16 07:59:38;;;;;;;9.23;6.10;;;11.80;95.00;;;;;;5014282;28;20393;-51
2021/05/16 08:02:06;;;;;;;6.90;5.75;;;11.80;95.10;;;;;;5014218;28;20022;-51
2021/05/16 08:04:33;;;;;;;7.60;5.82;;;11.80;95.20;;;;;;5014219;28;20106;-48
2021/05/16 08:07:00;;;;;;;7.35;6.18;;;11.70;95.20;;;;;;5014073;28;20029;-46
2021/05/16 08:09:28;;;;;;;7.07;5.97;;;11.70;95.70;;;;;;5014040;28;20022;-50
2021/05/16 08:11:55;;;;;;;6.85;6.25;;;11.60;96.20;;;;;;5013896;28;20022;-48
2021/05/16 08:14:22;;;;;;;8.18;6.10;;;11.60;96.00;;;;;;5013840;28;20018;-52
2021/05/16 08:16:50;;;;;;;8.35;5.95;;;11.50;96.10;;;;;;5013923;28;20018;-48
2021/05/16 08:19:17;;;;;;;7.00;6.28;;;11.40;96.10;;;;;;5013656;28;20068;-51
2021/05/16 08:21:45;;;;;;;8.18;6.28;;;11.40;97.30;;;;;;5013636;28;20327;-49
2021/05/16 08:24:15;;;;;;;7.68;7.00;;;11.30;97.30;;;;;;5013540;28;20509;-53
2021/05/16 08:26:42;;;;;;;9.60;7.32;;;11.30;98.80;;;;;;5013942;28;20025;-51
2021/05/16 08:29:10;;;;;;;10.68;9.35;;;11.20;98.50;;;;;;5013138;28;20576;-48
2021/05/16 08:31:37;;;;;;;8.68;7.40;;;11.20;99.40;;;;;;5013444;28;20120;-50
2021/05/16 08:34:08;;;;;;;7.55;6.30;;;11.10;98.60;;;;;;5013433;28;20379;-49
2021/05/16 08:36:40;;;;;;;5.43;4.93;;;11.10;98.00;;;;;;5013620;28;20501;-48
2021/05/16 08:39:09;;;;;;;6.07;5.57;;;11.40;94.60;;;;;;5013473;28;20075;-55
2021/05/16 08:41:38;;;;;;;6.60;5.72;;;11.90;93.70;;;;;;5013442;28;20026;-57
2021/05/16 08:44:06;;;;;;;6.05;5.55;;;12.00;94.10;;;;;;5013321;28;20109;-55
2021/05/16 08:46:34;;;;;;;5.63;5.05;;;12.00;94.10;;;;;;4995740;28;20069;-54
2021/05/16 08:49:01;;;;;;;5.60;5.10;;;12.20;93.00;;;;;;5013423;28;20034;-55
2021/05/16 08:51:29;;;;;;;7.47;5.70;;;12.20;93.00;;;;;;5013432;28;20077;-53
2021/05/16 08:54:00;;;;;;;7.10;6.40;;;12.20;92.80;;;;;;5013497;28;20046;-54
2021/05/16 08:56:27;;;;;;;6.60;6.00;;;12.30;93.20;;;;;;5013442;28;20026;-53
2021/05/16 08:58:54;;;;;;;6.20;5.70;;;12.30;93.40;;;;;;5013211;28;20030;-57
2021/05/16 09:01:35;;;;;;;6.45;5.00;;;12.40;92.80;;;;;;5013196;28;20030;-53
2021/05/16 09:04:32;;;;;;;6.18;5.57;;;12.50;92.70;;;;;;5013352;28;20081;-54
2021/05/16 09:06:59;;;;;;;6.28;5.68;;;12.40;92.40;;;;;;5013138;28;20033;-55
2021/05/16 09:09:45;;;;;;;5.18;4.68;;;12.40;92.50;;;;;;5013224;28;20525;-53
2021/05/16 09:12:17;;;;;;;4.47;4.07;;;12.40;92.40;;;;;;5013301;28;20076;-59
2021/05/16 09:15:00;;;;;;;5.15;4.10;;;12.50;91.60;;;;;;5013265;28;20525;-52
2021/05/16 09:17:34;;;;;;;6.45;4.70;;;12.70;90.90;;;;;;5013277;28;20101;-54
2021/05/16 09:20:07;;;;;;;5.00;4.60;;;12.90;90.90;;;;;;5013077;28;20128;-58
2021/05/16 09:22:37;;;;;;;5.07;4.35;;;12.70;91.70;;;;;;5013091;28;20097;-52
2021/05/16 09:25:17;;;;;;;4.60;4.10;;;12.80;90.60;;;;;;4995643;28;20080;-57
2021/05/16 09:27:56;;;;;;;6.05;4.70;;;12.70;90.90;;;;;;5013003;28;20109;-54
2021/05/16 09:30:28;;;;;;;7.93;4.95;;;12.70;91.70;;;;;;5012820;28;20070;-52
2021/05/16 09:32:59;;;;;;;6.18;5.35;;;12.60;91.30;;;;;;4995315;28;20022;-57
2021/05/16 09:35:40;;;;;;;4.95;4.40;;;12.60;91.20;;;;;;5014499;28;20026;-54
2021/05/16 09:38:08;;;;;;;5.13;4.72;;;12.50;91.20;;;;;;5016872;28;20032;-53
2021/05/16 09:40:42;;;;;;;5.50;5.00;;;12.50;90.90;;;;;;5016732;28;20034;-53
2021/05/16 09:43:27;;;;;;;3.72;3.45;;;12.50;90.90;;;;;;5017035;28;20045;-55
2021/05/16 09:46:12;;;;;;;5.05;4.57;;;12.50;90.30;;;;;;5016816;28;20022;-58
2021/05/16 09:48:47;;;;;;;4.25;3.85;;;12.40;90.70;;;;;;5016761;28;20120;-60
2021/05/16 09:51:22;;;;;;;5.00;4.43;;;12.50;90.60;;;;;;5016677;28;20544;-55
2021/05/16 09:54:08;;;;;;;4.72;4.03;;;12.40;90.80;;;;;;5016656;28;20096;-56
2021/05/16 09:56:37;;;;;;;4.72;4.20;;;12.40;91.10;;;;;;5016686;28;20026;-57
2021/05/16 09:59:07;;;;;;;10.05;8.98;;;12.30;91.40;;;;;;5016273;28;20487;-51
2021/05/16 10:01:35;;;;;;;4.95;4.45;;;12.10;92.10;;;;;;5016147;28;20061;-57
2021/05/16 10:04:04;;;;;;;5.07;4.30;;;12.10;91.50;;;;;;5016367;28;20028;-54
2021/05/16 10:06:33;;;;;;;5.18;3.97;;;12.10;91.60;;;;;;5016328;28;20064;-57
2021/05/16 10:09:00;;;;;;;3.65;3.45;;;12.10;91.90;;;;;;5016178;28;20364;-54
2021/05/16 10:11:30;;;;;;;4.13;3.80;;;12.00;91.70;;;;;;5016259;28;20018;-58
2021/05/16 10:14:16;;;;;;;5.68;3.28;;;12.00;92.00;;;;;;5015788;28;20047;-57
2021/05/16 10:16:50;;;;;;;3.45;2.90;;;11.90;92.00;;;;;;5016249;28;20029;-54
2021/05/16 10:19:30;;;;;;;4.28;3.42;;;11.90;91.70;;;;;;5016046;28;20021;-56
2021/05/16 10:22:15;;;;;;;3.55;3.03;;;11.90;92.00;;;;;;5016072;28;20029;-53
2021/05/16 10:24:50;;;;;;;3.88;3.47;;;11.90;91.90;;;;;;5016025;28;20029;-53
2021/05/16 10:27:32;;;;;;;3.95;3.30;;;11.90;92.00;;;;;;5015949;28;20027;-53
2021/05/16 10:30:03;;;;;;;5.15;2.97;;;11.90;92.00;;;;;;5015635;28;20046;-56
2021/05/16 10:32:34;;;;;;;4.20;2.90;;;11.80;92.00;;;;;;5016143;28;20030;-57
2021/05/16 10:35:11;;;;;;;3.78;3.30;;;11.70;92.30;;;;;;5015799;28;20065;-54
2021/05/16 10:37:49;;;;;;;4.13;3.70;;;11.70;92.20;;;;;;5015921;28;20108;-54
2021/05/16 10:40:29;;;;;;;4.50;3.20;;;11.70;92.60;;;;;;5015722;28;20108;-57
2021/05/16 10:42:57;;;;;;;;;;;11.60;92.60;;;;;;5016164;28;20505;-54
2021/05/16 10:45:33;;;;;;;4.75;3.65;;;11.50;92.70;;;;;;5015690;28;19912;-56
2021/05/16 10:48:17;;;;;;;3.55;3.25;;;11.50;93.40;;;;;;5015454;28;20553;-57
2021/05/16 10:51:00;;;;;;;3.83;3.03;;;11.50;93.00;;;;;;5015769;28;20033;-54
2021/05/16 10:53:33;;;;;;;8.90;5.47;;;11.50;92.80;;;;;;5015729;28;20026;-55
2021/05/16 10:56:11;;;;;;;7.85;4.25;;;11.40;93.90;;;;;;5015679;28;20022;-57
2021/05/16 10:58:49;;;;;;;4.38;3.97;;;11.30;94.40;;;;;;5015607;28;20045;-56
2021/05/16 11:01:32;;;;;;;5.60;4.60;;;11.20;93.60;;;;;;5015649;28;20395;-53
2021/05/16 11:04:01;;;;;;;3.55;3.10;;;11.10;93.50;;;;;;5015298;28;20038;-53
2021/05/16 11:06:41;;;;;;;4.13;2.92;;;11.10;93.70;;;;;;5015253;28;20453;-56
2021/05/16 11:09:12;;;;;;;3.63;2.80;;;11.10;93.60;;;;;;5015192;28;20101;-59
2021/05/16 11:11:52;;;;;;;2.60;2.40;;;11.10;93.60;;;;;;5015247;28;20085;-54
2021/05/16 11:14:35;;;;;;;4.68;3.20;;;11.00;94.00;;;;;;5015181;28;20025;-57
2021/05/16 11:17:04;;;;;;;3.53;2.70;;;10.90;94.10;;;;;;5015067;28;20032;-54
2021/05/16 11:19:35;;;;;;;4.50;3.05;;;11.00;94.00;;;;;;5014879;28;20037;-56
2021/05/16 11:22:17;;;;;;;5.78;3.03;;;11.00;94.00;;;;;;5015476;28;20022;-55
2021/05/16 11:24:47;;;;;;;5.50;2.50;;;11.10;93.70;;;;;;5014761;28;20030;-49
2021/05/16 11:27:31;;;;;;;3.00;2.57;;;11.20;93.60;;;;;;5014801;28;20113;-49
2021/05/16 11:30:11;;;;;;;3.15;2.50;;;11.20;93.60;;;;;;5013805;28;20124;-56
2021/05/16 11:32:39;;;;;;;3.55;2.70;;;11.20;93.30;;;;;;4997368;28;20397;-54
2021/05/16 11:35:22;;;;;;;3.42;2.70;;;11.30;93.30;;;;;;5014683;28;20075;-52
2021/05/16 11:37:58;;;;;;;2.47;2.28;;;11.20;93.30;;;;;;5014790;28;20076;-52
2021/05/16 11:40:37;;;;;;;3.90;2.90;;;11.20;93.70;;;;;;5014351;28;20022;-54
2021/05/16 11:43:08;;;;;;;2.85;2.42;;;11.20;93.70;;;;;;5014600;28;20493;-57
2021/05/16 11:45:41;;;;;;;4.18;2.63;;;11.10;93.60;;;;;;5014539;28;20028;-53
2021/05/16 11:48:24;;;;;;;4.95;2.97;;;11.10;93.70;;;;;;5014362;28;20490;-55
2021/05/16 11:50:52;;;;;;;2.90;2.60;;;11.10;93.60;;;;;;5014340;28;20045;-51
2021/05/16 11:53:23;;;;;;;3.28;2.38;;;11.10;93.80;;;;;;5014348;28;20076;-55
2021/05/16 11:55:51;;;;;;;2.63;2.40;;;11.10;93.60;;;;;;5014339;28;20034;-53
2021/05/16 11:58:18;;;;;;;4.68;2.70;;;11.00;93.60;;;;;;4996055;28;20033;-52
2021/05/16 12:00:47;;;;;;;4.45;2.85;;;11.00;93.70;;;;;;5014044;28;20436;-54
2021/05/16 12:03:15;;;;;;;3.67;2.30;;;11.00;93.80;;;;;;5014288;28;20438;-55
2021/05/16 12:05:45;;;;;;;2.00;1.90;;;10.90;94.10;;;;;;5014167;28;20018;-51
2021/05/16 12:08:14;;;;;;;4.38;2.05;;;10.80;94.20;;;;;;5013909;28;20022;-54
2021/05/16 12:10:42;;;;;;;3.70;2.38;;;10.80;94.30;;;;;;4996425;28;20506;-53
2021/05/16 12:13:25;;;;;;;4.35;3.55;;;10.90;94.30;;;;;;5014047;28;20029;-59
2021/05/16 12:15:52;;;;;;;5.97;2.30;;;10.80;94.20;;;;;;5014045;28;20554;-53
2021/05/16 12:18:24;;;;;;;3.00;1.90;;;10.90;94.30;;;;;;5013905;28;20029;-54
2021/05/16 12:21:02;;;;;;;3.53;2.33;;;10.80;94.40;;;;;;5013850;28;20018;-50
2021/05/16 12:23:31;;;;;;;4.00;2.42;;;10.70;94.60;;;;;;5013616;28;20026;-56
2021/05/16 12:25:59;;;;;;;4.50;2.40;;;10.70;94.60;;;;;;5014057;28;20036;-52
2021/05/16 12:28:27;;;;;;;4.22;2.58;;;10.60;94.50;;;;;;4996147;28;20080;-56
2021/05/16 12:30:55;;;;;;;3.85;2.20;;;10.60;94.60;;;;;;5013650;28;20153;-53
2021/05/16 12:33:22;;;;;;;6.57;2.25;;;10.50;95.10;;;;;;5013724;28;20050;-56
2021/05/16 12:35:50;;;;;;;2.80;2.00;;;10.40;94.80;;;;;;5013708;28;20026;-55
2021/05/16 12:38:18;;;;;;;2.38;1.98;;;10.40;95.10;;;;;;5013586;28;20060;-58
2021/05/16 12:40:46;;;;;;;2.85;1.83;;;10.40;95.00;;;;;;5013634;28;20554;-53
2021/05/16 12:43:18;;;;;;;2.97;1.90;;;10.40;94.30;;;;;;5013553;28;20454;-53
2021/05/16 12:45:46;;;;;;;4.18;2.03;;;10.40;94.20;;;;;;5013795;28;20046;-54
2021/05/16 12:48:22;;;;;;;2.60;1.85;;;10.40;94.30;;;;;;5013490;28;20049;-57
2021/05/16 12:50:52;;;;;;;4.30;1.80;;;10.50;93.90;;;;;;5013501;28;20068;-57
2021/05/16 12:55:50;;;;;;;4.28;2.30;;;10.50;93.50;;;;;;5013800;28;20402;-55
2021/05/16 12:58:22;;;;;;;3.95;1.90;;;10.50;93.50;;;;;;5013564;28;20021;-58
2021/05/16 13:00:57;;;;;;;3.28;2.25;;;10.50;93.20;;;;;;5013352;28;20029;-57
2021/05/16 13:03:32;;;;;;;3.15;2.10;;;10.50;93.60;;;;;;5013506;28;20053;-57